createdAt,value
2018-01-03T00:00:36.102Z,91.94
2018-01-03T00:01:36.135Z,91.94
2018-01-03T00:02:36.165Z,91.56
2018-01-03T00:03:36.192Z,91.56
2018-01-03T00:04:36.220Z,92.51
2018-01-03T00:05:36.251Z,91.84
2018-01-03T00:06:36.284Z,91.65
2018-01-03T00:07:36.309Z,92.13
2018-01-03T00:08:36.342Z,91.56
2018-01-03T00:09:36.371Z,92.41
2018-01-03T00:10:36.401Z,91.56
2018-01-03T00:11:36.429Z,92.60
2018-01-03T00:12:36.457Z,92.32
2018-01-03T00:13:36.487Z,92.03
2018-01-03T00:14:36.520Z,92.13
2018-01-03T00:15:36.547Z,92.51
2018-01-03T00:16:36.576Z,92.32
2018-01-03T00:17:36.592Z,92.03
2018-01-03T00:18:36.636Z,91.94
2018-01-03T00:19:36.668Z,91.94
2018-01-03T00:20:36.683Z,92.51
2018-01-03T00:21:36.725Z,92.51
2018-01-03T00:22:36.742Z,92.60
2018-01-03T00:23:36.782Z,92.60
2018-01-03T00:24:36.813Z,92.99
2018-01-03T00:25:36.830Z,93.08
2018-01-03T00:26:36.873Z,93.74
2018-01-03T00:27:36.906Z,92.51
2018-01-03T00:28:36.930Z,93.18
2018-01-03T00:29:36.948Z,93.37
2018-01-03T00:30:36.991Z,92.79
2018-01-03T00:31:37.009Z,93.74
2018-01-03T00:32:37.051Z,93.94
2018-01-03T00:33:37.079Z,94.42
2018-01-03T00:34:37.109Z,94.32
2018-01-03T00:35:37.129Z,93.94
2018-01-03T00:36:37.156Z,94.22
2018-01-03T00:37:37.186Z,94.13
2018-01-03T00:38:37.217Z,94.32
2018-01-03T00:39:37.252Z,94.42
2018-01-03T00:40:37.276Z,94.89
2018-01-03T00:41:37.318Z,94.42
2018-01-03T00:42:37.337Z,95.17
2018-01-03T00:43:37.366Z,95.27
2018-01-03T00:44:37.396Z,94.98
2018-01-03T00:45:37.436Z,95.17
2018-01-03T00:46:37.455Z,95.56
2018-01-03T00:47:37.485Z,96.41
2018-01-03T00:48:37.519Z,95.65
2018-01-03T00:49:37.545Z,95.65
2018-01-03T00:50:37.580Z,95.84
2018-01-03T00:51:37.605Z,95.65
2018-01-03T00:52:37.635Z,96.41
2018-01-03T00:53:37.663Z,96.03
2018-01-03T00:54:37.692Z,96.22
2018-01-03T00:55:37.722Z,96.79
2018-01-03T00:56:37.752Z,97.08
2018-01-03T00:57:37.782Z,96.60
2018-01-03T00:58:37.813Z,97.08
2018-01-03T00:59:37.842Z,97.36
2018-01-03T01:00:37.870Z,97.27
2018-01-03T01:01:37.901Z,97.36
2018-01-03T01:02:37.930Z,97.46
2018-01-03T01:03:37.961Z,97.27
2018-01-03T01:04:37.990Z,97.36
2018-01-03T01:05:38.020Z,97.17
2018-01-03T01:06:38.048Z,97.17
2018-01-03T01:07:38.079Z,97.08
2018-01-03T01:08:38.109Z,96.98
2018-01-03T01:09:38.139Z,97.31
2018-01-03T01:10:38.168Z,96.94
2018-01-03T01:11:38.200Z,97.41
2018-01-03T01:12:38.228Z,97.31
2018-01-03T01:13:38.257Z,96.94
2018-01-03T01:14:38.288Z,96.75
2018-01-03T01:15:38.319Z,96.46
2018-01-03T01:16:38.347Z,96.75
2018-01-03T01:17:38.379Z,96.75
2018-01-03T01:18:38.407Z,96.94
2018-01-03T01:19:38.438Z,96.55
2018-01-03T01:20:38.466Z,96.27
2018-01-03T01:21:38.497Z,97.41
2018-01-03T01:22:38.527Z,97.60
2018-01-03T01:23:38.557Z,97.41
2018-01-03T01:24:38.585Z,97.13
2018-01-03T01:25:38.616Z,97.22
2018-01-03T01:26:38.647Z,97.22
2018-01-03T01:27:38.677Z,97.22
2018-01-03T01:28:38.706Z,98.27
2018-01-03T01:29:38.736Z,97.99
2018-01-03T01:30:38.766Z,98.36
2018-01-03T01:31:38.796Z,98.36
2018-01-03T01:32:38.825Z,98.55
2018-01-03T01:33:38.856Z,98.18
2018-01-03T01:34:38.887Z,98.55
2018-01-03T01:35:38.917Z,98.55
2018-01-03T01:36:38.946Z,98.36
2018-01-03T01:37:38.975Z,98.55
2018-01-03T01:38:39.006Z,98.65
2018-01-03T01:39:39.038Z,98.32
2018-01-03T01:40:39.066Z,98.27
2018-01-03T01:41:39.096Z,98.99
2018-01-03T01:42:39.125Z,99.03
2018-01-03T01:43:39.156Z,98.65
2018-01-03T01:44:39.185Z,99.22
2018-01-03T01:45:39.219Z,99.03
2018-01-03T01:46:39.247Z,98.70
2018-01-03T01:47:39.276Z,98.99
2018-01-03T01:48:39.306Z,98.70
2018-01-03T01:49:39.337Z,98.41
2018-01-03T01:50:39.365Z,98.60
2018-01-03T01:51:39.395Z,98.60
2018-01-03T01:52:39.425Z,98.60
2018-01-03T01:53:39.457Z,98.41
2018-01-03T01:54:39.487Z,98.60
2018-01-03T01:55:39.518Z,98.60
2018-01-03T01:56:39.553Z,98.13
2018-01-03T01:57:39.577Z,98.41
2018-01-03T01:58:39.609Z,99.08
2018-01-03T01:59:39.638Z,98.60
2018-01-03T02:00:39.668Z,98.70
2018-01-03T02:01:39.744Z,99.46
2018-01-03T02:02:39.729Z,99.55
2018-01-03T02:03:39.758Z,99.37
2018-01-03T02:04:39.789Z,98.99
2018-01-03T02:05:39.820Z,98.60
2018-01-03T02:06:39.850Z,98.65
2018-01-03T02:07:39.879Z,98.79
2018-01-03T02:08:39.908Z,98.65
2018-01-03T02:09:39.940Z,98.65
2018-01-03T02:10:39.971Z,99.04
2018-01-03T02:11:40.002Z,99.22
2018-01-03T02:12:40.030Z,98.94
2018-01-03T02:13:40.061Z,99.22
2018-01-03T02:14:40.092Z,99.51
2018-01-03T02:15:40.122Z,99.70
2018-01-03T02:16:40.152Z,99.41
2018-01-03T02:17:40.182Z,99.84
2018-01-03T02:18:40.213Z,99.65
2018-01-03T02:19:40.244Z,99.99
2018-01-03T02:20:40.273Z,99.99
2018-01-03T02:21:40.304Z,99.32
2018-01-03T02:22:40.334Z,99.70
2018-01-03T02:23:40.366Z,99.70
2018-01-03T02:24:40.396Z,99.99
2018-01-03T02:25:40.427Z,99.80
2018-01-03T02:26:40.457Z,99.60
2018-01-03T02:27:40.487Z,99.99
2018-01-03T02:28:40.517Z,99.99
2018-01-03T02:29:40.548Z,99.99
2018-01-03T02:30:40.579Z,99.99
2018-01-03T02:31:40.609Z,99.99
2018-01-03T02:32:40.640Z,99.99
2018-01-03T02:33:40.669Z,99.80
2018-01-03T02:34:40.701Z,99.70
2018-01-03T02:35:40.732Z,99.80
2018-01-03T02:36:40.761Z,99.89
2018-01-03T02:37:40.793Z,99.99
2018-01-03T02:38:40.824Z,99.99
2018-01-03T02:39:40.854Z,99.99
2018-01-03T02:40:40.884Z,99.99
2018-01-03T02:41:40.919Z,99.99
2018-01-03T02:42:40.946Z,99.99
2018-01-03T02:43:40.978Z,99.70
2018-01-03T02:44:41.008Z,99.99
2018-01-03T02:45:41.038Z,99.80
2018-01-03T02:46:41.068Z,99.70
2018-01-03T02:47:41.106Z,99.32
2018-01-03T02:48:41.130Z,99.51
2018-01-03T02:49:41.160Z,99.70
2018-01-03T02:50:41.191Z,99.51
2018-01-03T02:51:41.228Z,98.94
2018-01-03T02:52:41.252Z,99.80
2018-01-03T02:53:41.285Z,98.75
2018-01-03T02:54:41.314Z,99.13
2018-01-03T02:55:41.345Z,98.75
2018-01-03T02:56:41.376Z,98.85
2018-01-03T02:57:41.406Z,98.70
2018-01-03T02:58:41.437Z,98.32
2018-01-03T02:59:41.475Z,98.13
2018-01-03T03:00:41.497Z,97.27
2018-01-03T03:01:41.529Z,97.46
2018-01-03T03:02:41.560Z,97.66
2018-01-03T03:03:41.592Z,97.17
2018-01-03T03:04:41.623Z,96.51
2018-01-03T03:05:41.654Z,96.03
2018-01-03T03:06:41.685Z,96.22
2018-01-03T03:07:41.717Z,95.75
2018-01-03T03:08:41.746Z,95.75
2018-01-03T03:09:41.777Z,95.84
2018-01-03T03:10:41.809Z,96.13
2018-01-03T03:11:41.842Z,95.84
2018-01-03T03:12:41.871Z,95.89
2018-01-03T03:13:41.901Z,96.27
2018-01-03T03:14:41.932Z,95.89
2018-01-03T03:15:41.965Z,95.70
2018-01-03T03:16:41.995Z,96.13
2018-01-03T03:17:42.027Z,95.98
2018-01-03T03:18:42.057Z,95.94
2018-01-03T03:19:42.089Z,95.89
2018-01-03T03:20:42.120Z,96.27
2018-01-03T03:21:42.153Z,96.27
2018-01-03T03:22:42.183Z,96.08
2018-01-03T03:23:42.214Z,96.94
2018-01-03T03:24:42.244Z,96.66
2018-01-03T03:25:42.276Z,96.75
2018-01-03T03:26:42.307Z,97.61
2018-01-03T03:27:42.339Z,96.75
2018-01-03T03:28:42.370Z,96.66
2018-01-03T03:29:42.401Z,97.71
2018-01-03T03:30:42.433Z,97.61
2018-01-03T03:31:42.463Z,97.51
2018-01-03T03:32:44.849Z,96.46
2018-01-03T03:33:42.526Z,96.66
2018-01-03T03:34:42.556Z,96.08
2018-01-03T03:35:42.590Z,96.75
2018-01-03T03:36:42.619Z,96.75
2018-01-03T03:37:42.650Z,97.03
2018-01-03T03:38:42.681Z,97.13
2018-01-03T03:39:42.714Z,97.32
2018-01-03T03:40:42.744Z,96.94
2018-01-03T03:41:42.778Z,96.94
2018-01-03T03:42:42.806Z,96.84
2018-01-03T03:43:42.839Z,96.75
2018-01-03T03:44:42.870Z,96.84
2018-01-03T03:45:42.907Z,96.46
2018-01-03T03:46:42.931Z,96.56
2018-01-03T03:47:42.963Z,96.75
2018-01-03T03:48:42.996Z,96.75
2018-01-03T03:49:43.027Z,97.32
2018-01-03T03:50:43.058Z,97.32
2018-01-03T03:51:43.094Z,97.80
2018-01-03T03:52:43.120Z,97.42
2018-01-03T03:53:43.151Z,97.51
2018-01-03T03:54:43.183Z,97.51
2018-01-03T03:55:43.215Z,96.75
2018-01-03T03:56:43.244Z,96.37
2018-01-03T03:57:43.278Z,97.03
2018-01-03T03:58:43.308Z,96.84
2018-01-03T03:59:43.341Z,96.84
2018-01-03T04:00:43.370Z,97.51
2018-01-03T04:01:43.403Z,97.71
2018-01-03T04:02:43.434Z,97.22
2018-01-03T04:03:43.466Z,97.13
2018-01-03T04:04:43.497Z,97.22
2018-01-03T04:05:43.529Z,97.32
2018-01-03T04:06:43.560Z,97.75
2018-01-03T04:07:43.592Z,97.37
2018-01-03T04:08:43.624Z,97.56
2018-01-03T04:09:43.654Z,97.56
2018-01-03T04:10:43.686Z,97.37
2018-01-03T04:11:43.718Z,97.66
2018-01-03T04:12:43.750Z,96.98
2018-01-03T04:13:43.781Z,97.56
2018-01-03T04:14:43.812Z,97.18
2018-01-03T04:15:43.844Z,97.47
2018-01-03T04:16:43.875Z,97.56
2018-01-03T04:17:43.905Z,97.47
2018-01-03T04:18:43.937Z,97.85
2018-01-03T04:19:43.970Z,97.47
2018-01-03T04:20:44.001Z,97.56
2018-01-03T04:21:44.051Z,97.94
2018-01-03T04:22:44.065Z,97.56
2018-01-03T04:23:44.096Z,97.94
2018-01-03T04:24:44.126Z,98.52
2018-01-03T04:25:44.161Z,98.52
2018-01-03T04:26:44.191Z,98.42
2018-01-03T04:27:44.223Z,97.27
2018-01-03T04:28:44.254Z,97.85
2018-01-03T04:29:44.286Z,98.52
2018-01-03T04:30:44.318Z,97.85
2018-01-03T04:31:44.350Z,97.75
2018-01-03T04:32:44.380Z,96.98
2018-01-03T04:33:44.412Z,97.37
2018-01-03T04:34:44.444Z,96.98
2018-01-03T04:35:44.476Z,96.61
2018-01-03T04:36:44.507Z,96.13
2018-01-03T04:37:44.539Z,96.22
2018-01-03T04:38:44.572Z,95.75
2018-01-03T04:39:44.603Z,95.75
2018-01-03T04:40:44.634Z,96.22
2018-01-03T04:41:44.666Z,96.22
2018-01-03T04:42:44.698Z,96.03
2018-01-03T04:43:44.729Z,96.98
2018-01-03T04:44:44.761Z,96.32
2018-01-03T04:45:44.796Z,96.98
2018-01-03T04:46:44.824Z,96.32
2018-01-03T04:47:44.857Z,95.75
2018-01-03T04:48:44.887Z,96.03
2018-01-03T04:49:44.920Z,95.94
2018-01-03T04:50:44.952Z,96.42
2018-01-03T04:51:44.984Z,96.22
2018-01-03T04:52:45.016Z,96.13
2018-01-03T04:53:45.048Z,96.22
2018-01-03T04:54:45.079Z,96.42
2018-01-03T04:55:45.111Z,96.32
2018-01-03T04:56:45.143Z,96.22
2018-01-03T04:57:45.175Z,96.13
2018-01-03T04:58:45.206Z,96.03
2018-01-03T04:59:45.238Z,96.13
2018-01-03T05:00:45.271Z,96.13
2018-01-03T05:01:45.302Z,96.32
2018-01-03T05:02:45.333Z,95.75
2018-01-03T05:03:45.366Z,95.75
2018-01-03T05:04:45.397Z,95.94
2018-01-03T05:05:45.429Z,96.32
2018-01-03T05:06:45.460Z,95.94
2018-01-03T05:07:45.494Z,95.94
2018-01-03T05:08:45.524Z,95.75
2018-01-03T05:09:45.556Z,95.08
2018-01-03T05:10:45.589Z,95.56
2018-01-03T05:11:45.621Z,96.13
2018-01-03T05:12:45.652Z,95.08
2018-01-03T05:13:45.683Z,94.70
2018-01-03T05:14:45.716Z,94.31
2018-01-03T05:15:45.748Z,94.70
2018-01-03T05:16:45.778Z,94.36
2018-01-03T05:17:45.811Z,94.93
2018-01-03T05:18:45.847Z,94.46
2018-01-03T05:19:45.878Z,94.70
2018-01-03T05:20:45.906Z,94.60
2018-01-03T05:21:45.938Z,94.41
2018-01-03T05:22:45.971Z,95.17
2018-01-03T05:23:46.003Z,94.79
2018-01-03T05:24:46.035Z,94.51
2018-01-03T05:25:46.068Z,94.74
2018-01-03T05:26:46.099Z,95.08
2018-01-03T05:27:46.132Z,94.55
2018-01-03T05:28:46.164Z,94.70
2018-01-03T05:29:46.195Z,95.46
2018-01-03T05:30:46.225Z,95.27
2018-01-03T05:31:46.260Z,94.70
2018-01-03T05:32:46.291Z,94.60
2018-01-03T05:33:46.323Z,94.70
2018-01-03T05:34:46.356Z,94.60
2018-01-03T05:35:46.386Z,95.17
2018-01-03T05:36:46.418Z,95.46
2018-01-03T05:37:46.452Z,94.70
2018-01-03T05:38:46.484Z,94.65
2018-01-03T05:39:46.515Z,94.46
2018-01-03T05:40:46.547Z,94.22
2018-01-03T05:41:46.579Z,94.46
2018-01-03T05:42:46.611Z,94.41
2018-01-03T05:43:46.643Z,94.27
2018-01-03T05:44:46.675Z,94.07
2018-01-03T05:45:46.706Z,94.46
2018-01-03T05:46:46.739Z,94.07
2018-01-03T05:47:46.771Z,94.36
2018-01-03T05:48:46.802Z,94.65
2018-01-03T05:49:46.837Z,94.36
2018-01-03T05:50:46.868Z,94.74
2018-01-03T05:51:46.899Z,94.74
2018-01-03T05:52:46.930Z,94.74
2018-01-03T05:53:46.963Z,95.12
2018-01-03T05:54:46.995Z,95.61
2018-01-03T05:55:47.028Z,94.84
2018-01-03T05:56:47.059Z,94.93
2018-01-03T05:57:47.091Z,94.65
2018-01-03T05:58:47.124Z,94.74
2018-01-03T05:59:47.156Z,94.55
2018-01-03T06:00:47.187Z,94.27
2018-01-03T06:01:47.219Z,95.12
2018-01-03T06:02:47.251Z,95.32
2018-01-03T06:03:47.284Z,95.41
2018-01-03T06:04:47.321Z,95.32
2018-01-03T06:05:47.347Z,95.51
2018-01-03T06:06:47.379Z,94.84
2018-01-03T06:07:47.411Z,94.55
2018-01-03T06:08:47.441Z,94.55
2018-01-03T06:09:47.475Z,94.55
2018-01-03T06:10:47.507Z,94.46
2018-01-03T06:11:47.542Z,94.46
2018-01-03T06:12:47.570Z,94.55
2018-01-03T06:13:47.604Z,94.65
2018-01-03T06:14:47.636Z,93.98
2018-01-03T06:15:47.667Z,94.65
2018-01-03T06:16:47.699Z,95.32
2018-01-03T06:17:47.733Z,95.32
2018-01-03T06:18:47.764Z,94.65
2018-01-03T06:19:47.795Z,95.32
2018-01-03T06:20:47.828Z,95.41
2018-01-03T06:21:47.860Z,94.65
2018-01-03T06:22:47.891Z,95.22
2018-01-03T06:23:47.925Z,94.79
2018-01-03T06:24:47.956Z,93.93
2018-01-03T06:25:47.987Z,93.84
2018-01-03T06:26:48.020Z,93.55
2018-01-03T06:27:48.053Z,93.55
2018-01-03T06:28:48.084Z,93.74
2018-01-03T06:29:48.115Z,93.55
2018-01-03T06:30:48.149Z,93.65
2018-01-03T06:31:48.181Z,94.31
2018-01-03T06:32:48.212Z,93.84
2018-01-03T06:33:48.244Z,93.07
2018-01-03T06:34:48.279Z,93.74
2018-01-03T06:35:48.309Z,93.07
2018-01-03T06:36:48.347Z,92.79
2018-01-03T06:37:48.374Z,92.59
2018-01-03T06:38:48.406Z,92.02
2018-01-03T06:39:48.437Z,92.11
2018-01-03T06:40:48.471Z,92.35
2018-01-03T06:41:48.503Z,92.50
2018-01-03T06:42:48.535Z,92.02
2018-01-03T06:43:48.568Z,92.02
2018-01-03T06:44:48.600Z,92.79
2018-01-03T06:45:48.632Z,92.69
2018-01-03T06:46:48.664Z,92.69
2018-01-03T06:47:48.702Z,92.11
2018-01-03T06:48:48.729Z,92.30
2018-01-03T06:49:48.761Z,92.69
2018-01-03T06:50:48.794Z,92.50
2018-01-03T06:51:48.827Z,92.30
2018-01-03T06:52:48.859Z,93.16
2018-01-03T06:53:48.891Z,93.16
2018-01-03T06:54:48.923Z,92.88
2018-01-03T06:55:48.956Z,92.88
2018-01-03T06:56:48.988Z,92.21
2018-01-03T06:57:49.020Z,92.11
2018-01-03T06:58:49.053Z,92.02
2018-01-03T06:59:49.086Z,91.78
2018-01-03T07:00:49.118Z,91.97
2018-01-03T07:01:49.150Z,91.20
2018-01-03T07:02:49.182Z,91.68
2018-01-03T07:03:49.216Z,92.11
2018-01-03T07:04:49.250Z,91.59
2018-01-03T07:05:49.280Z,92.16
2018-01-03T07:06:49.314Z,92.16
2018-01-03T07:07:49.346Z,93.12
2018-01-03T07:08:49.378Z,93.69
2018-01-03T07:09:49.411Z,96.42
2018-01-03T07:10:49.446Z,96.32
2018-01-03T07:11:49.477Z,97.18
2018-01-03T07:12:49.509Z,97.28
2018-01-03T07:13:49.541Z,96.99
2018-01-03T07:14:49.575Z,97.52
2018-01-03T07:15:49.607Z,97.42
2018-01-03T07:16:49.637Z,98.18
2018-01-03T07:17:49.671Z,97.42
2018-01-03T07:18:49.705Z,98.66
2018-01-03T07:19:49.737Z,98.28
2018-01-03T07:20:49.769Z,99.04
2018-01-03T07:21:49.802Z,99.04
2018-01-03T07:22:49.835Z,98.85
2018-01-03T07:23:49.868Z,98.85
2018-01-03T07:24:49.899Z,99.62
2018-01-03T07:25:49.933Z,98.85
2018-01-03T07:26:49.965Z,98.75
2018-01-03T07:27:49.997Z,99.04
2018-01-03T07:28:50.031Z,98.37
2018-01-03T07:29:50.062Z,98.42
2018-01-03T07:30:50.095Z,98.66
2018-01-03T07:31:50.127Z,97.66
2018-01-03T07:32:50.159Z,96.61
2018-01-03T07:33:50.191Z,96.03
2018-01-03T07:34:50.226Z,96.32
2018-01-03T07:35:50.257Z,95.75
2018-01-03T07:36:50.288Z,94.79
2018-01-03T07:37:50.322Z,92.88
2018-01-03T07:38:50.355Z,91.88
2018-01-03T07:39:50.386Z,90.92
2018-01-03T07:40:50.418Z,90.73
2018-01-03T07:41:50.452Z,91.78
2018-01-03T07:42:50.484Z,91.20
2018-01-03T07:43:50.516Z,90.34
2018-01-03T07:44:50.554Z,90.44
2018-01-03T07:45:50.580Z,89.96
2018-01-03T07:46:50.613Z,89.87
2018-01-03T07:47:50.647Z,88.81
2018-01-03T07:48:50.678Z,87.57
2018-01-03T07:49:50.710Z,85.85
2018-01-03T07:50:50.744Z,86.23
2018-01-03T07:51:50.778Z,84.32
2018-01-03T07:52:50.809Z,83.95
2018-01-03T07:53:50.842Z,84.67
2018-01-03T07:54:50.874Z,86.30
2018-01-03T07:55:50.907Z,87.49
2018-01-03T07:56:50.938Z,89.83
2018-01-03T07:57:50.970Z,91.36
2018-01-03T07:58:51.003Z,92.60
2018-01-03T07:59:51.037Z,94.22
2018-01-03T08:00:51.069Z,95.37
2018-01-03T08:01:51.099Z,96.65
2018-01-03T08:02:51.174Z,96.32
2018-01-03T08:03:51.164Z,95.65
2018-01-03T08:04:51.195Z,96.03
2018-01-03T08:05:51.227Z,95.98
2018-01-03T08:06:51.259Z,95.08
2018-01-03T08:07:51.290Z,95.17
2018-01-03T08:08:51.323Z,94.60
2018-01-03T08:09:51.352Z,93.46
2018-01-03T08:10:51.384Z,93.27
2018-01-03T08:11:51.416Z,93.55
2018-01-03T08:12:51.444Z,94.70
2018-01-03T08:13:51.477Z,93.74
2018-01-03T08:14:51.507Z,94.46
2018-01-03T08:15:51.540Z,94.93
2018-01-03T08:16:51.570Z,95.79
2018-01-03T08:17:51.602Z,97.22
2018-01-03T08:18:51.632Z,97.70
2018-01-03T08:19:51.663Z,98.27
2018-01-03T08:20:51.694Z,98.65
2018-01-03T08:21:51.725Z,98.94
2018-01-03T08:22:51.755Z,98.85
2018-01-03T08:23:51.853Z,98.65
2018-01-03T08:24:51.817Z,98.18
2018-01-03T08:25:51.848Z,98.99
2018-01-03T08:26:51.879Z,98.60
2018-01-03T08:27:51.910Z,98.70
2018-01-03T08:28:51.939Z,99.37
2018-01-03T08:29:51.972Z,99.94
2018-01-03T08:30:52.002Z,99.46
2018-01-03T08:31:52.033Z,99.94
2018-01-03T08:32:52.062Z,99.99
2018-01-03T08:33:52.094Z,99.99
2018-01-03T08:34:52.125Z,99.99
2018-01-03T08:35:52.155Z,99.99
2018-01-03T08:36:52.184Z,99.84
2018-01-03T08:37:52.215Z,99.94
2018-01-03T08:38:52.261Z,99.99
2018-01-03T08:39:52.277Z,99.99
2018-01-03T08:40:52.307Z,99.99
2018-01-03T08:41:52.337Z,99.99
2018-01-03T08:42:52.368Z,99.99
2018-01-03T08:43:52.407Z,99.99
2018-01-03T08:44:52.430Z,99.99
2018-01-03T08:45:52.461Z,99.99
2018-01-03T08:46:52.489Z,99.99
2018-01-03T08:47:52.520Z,99.99
2018-01-03T08:48:52.550Z,99.99
2018-01-03T08:49:52.581Z,99.99
2018-01-03T08:50:52.613Z,99.99
2018-01-03T08:51:52.642Z,99.99
2018-01-03T08:52:52.671Z,99.99
2018-01-03T08:53:52.703Z,99.99
2018-01-03T08:54:52.735Z,99.99
2018-01-03T08:55:52.764Z,99.99
2018-01-03T08:56:52.794Z,99.99
2018-01-03T08:57:52.825Z,99.99
2018-01-03T08:58:52.855Z,99.99
2018-01-03T08:59:52.887Z,99.99
2018-01-03T09:00:52.915Z,99.99
2018-01-03T09:01:52.947Z,99.99
2018-01-03T09:02:52.979Z,99.99
2018-01-03T09:03:53.008Z,99.99
2018-01-03T09:04:53.038Z,99.99
2018-01-03T09:05:53.070Z,99.99
2018-01-03T09:06:53.101Z,99.99
2018-01-03T09:07:53.130Z,99.99
2018-01-03T09:08:53.162Z,99.99
2018-01-03T09:09:53.196Z,99.99
2018-01-03T09:10:53.223Z,99.99
2018-01-03T09:11:53.254Z,99.99
2018-01-03T09:12:53.284Z,99.99
2018-01-03T09:13:53.314Z,99.99
2018-01-03T09:14:53.346Z,99.99
2018-01-03T09:15:53.377Z,99.99
2018-01-03T09:16:53.406Z,99.99
2018-01-03T09:17:53.437Z,99.99
2018-01-03T09:18:53.467Z,99.99
2018-01-03T09:19:53.499Z,99.99
2018-01-03T09:20:53.529Z,99.99
2018-01-03T09:21:53.562Z,99.99
2018-01-03T09:22:53.591Z,99.99
2018-01-03T09:23:53.622Z,99.99
2018-01-03T09:24:53.652Z,99.99
2018-01-03T09:25:53.683Z,99.99
2018-01-03T09:26:53.714Z,99.99
2018-01-03T09:27:53.745Z,99.99
2018-01-03T09:28:53.775Z,99.99
2018-01-03T09:29:53.805Z,99.99
2018-01-03T09:30:53.836Z,99.99
2018-01-03T09:31:53.868Z,99.99
2018-01-03T09:32:53.897Z,99.99
2018-01-03T09:33:53.929Z,99.99
2018-01-03T09:34:53.959Z,99.99
2018-01-03T09:35:53.991Z,99.99
2018-01-03T09:36:54.020Z,99.99
2018-01-03T09:37:54.052Z,99.99
2018-01-03T09:38:54.082Z,99.99
2018-01-03T09:39:54.112Z,99.99
2018-01-03T09:40:54.142Z,99.99
2018-01-03T09:41:54.174Z,99.99
2018-01-03T09:42:54.205Z,99.99
2018-01-03T09:43:54.239Z,99.99
2018-01-03T09:44:54.265Z,99.99
2018-01-03T09:45:54.295Z,99.99
2018-01-03T09:46:54.326Z,99.99
2018-01-03T09:47:54.358Z,99.99
2018-01-03T09:48:54.388Z,99.99
2018-01-03T09:49:54.419Z,99.99
2018-01-03T09:50:54.451Z,99.99
2018-01-03T09:51:54.480Z,99.99
2018-01-03T09:52:54.510Z,99.99
2018-01-03T09:53:54.541Z,99.99
2018-01-03T09:54:54.571Z,99.99
2018-01-03T09:55:54.601Z,98.08
2018-01-03T09:56:54.632Z,94.60
2018-01-03T09:57:54.662Z,91.65
2018-01-03T09:58:54.693Z,91.36
2018-01-03T09:59:54.723Z,92.60
2018-01-03T10:00:54.752Z,92.60
2018-01-03T10:01:54.783Z,91.89
2018-01-03T10:02:54.814Z,92.46
2018-01-03T10:03:54.847Z,92.55
2018-01-03T10:04:54.874Z,95.79
2018-01-03T10:05:54.904Z,97.08
2018-01-03T10:06:54.933Z,99.99
2018-01-03T10:07:54.965Z,99.99
2018-01-03T10:08:54.994Z,99.99
2018-01-03T10:09:55.024Z,99.99
2018-01-03T10:10:55.054Z,99.99
2018-01-03T10:11:55.084Z,99.99
2018-01-03T10:12:55.113Z,99.99
2018-01-03T10:13:55.141Z,99.99
2018-01-03T10:14:55.173Z,99.99
2018-01-03T10:15:55.202Z,99.99
2018-01-03T10:16:55.230Z,99.99
2018-01-03T10:17:55.259Z,99.99
2018-01-03T10:18:55.288Z,99.84
2018-01-03T10:19:55.318Z,96.89
2018-01-03T10:20:55.346Z,95.56
2018-01-03T10:21:55.374Z,94.32
2018-01-03T10:22:55.403Z,93.94
2018-01-03T10:23:55.434Z,94.79
2018-01-03T10:24:55.462Z,94.13
2018-01-03T10:25:55.490Z,93.41
2018-01-03T10:26:55.519Z,92.56
2018-01-03T10:27:55.547Z,91.89
2018-01-03T10:28:55.576Z,92.08
2018-01-03T10:29:55.604Z,92.18
2018-01-03T10:30:55.639Z,92.56
2018-01-03T10:31:55.662Z,93.89
2018-01-03T10:32:55.690Z,92.94
2018-01-03T10:33:55.718Z,93.32
2018-01-03T10:34:55.747Z,94.46
2018-01-03T10:35:55.775Z,94.46
2018-01-03T10:36:55.803Z,94.93
2018-01-03T10:37:55.831Z,93.23
2018-01-03T10:38:55.860Z,91.94
2018-01-03T10:39:55.889Z,91.56
2018-01-03T10:40:55.915Z,90.80
2018-01-03T10:41:55.945Z,91.71
2018-01-03T10:42:55.973Z,92.32
2018-01-03T10:43:56.007Z,91.52
2018-01-03T10:44:56.031Z,91.52
2018-01-03T10:45:56.057Z,92.46
2018-01-03T10:46:56.086Z,91.04
2018-01-03T10:47:56.115Z,91.04
2018-01-03T10:48:56.141Z,91.42
2018-01-03T10:49:56.170Z,92.37
2018-01-03T10:50:56.200Z,91.47
2018-01-03T10:51:56.228Z,92.32
2018-01-03T10:52:56.259Z,91.47
2018-01-03T10:53:56.284Z,90.61
2018-01-03T10:54:56.313Z,90.80
2018-01-03T10:55:56.341Z,90.89
2018-01-03T10:56:56.369Z,90.14
2018-01-03T10:57:56.397Z,90.04
2018-01-03T10:58:56.426Z,91.37
2018-01-03T10:59:56.461Z,90.61
2018-01-03T11:00:56.482Z,91.94
2018-01-03T11:01:56.511Z,90.42
2018-01-03T11:02:56.541Z,90.61
2018-01-03T11:03:56.570Z,89.56
2018-01-03T11:04:56.598Z,90.04
2018-01-03T11:05:56.627Z,90.04
2018-01-03T11:06:56.655Z,89.37
2018-01-03T11:07:56.684Z,89.56
2018-01-03T11:08:56.712Z,89.00
2018-01-03T11:09:56.740Z,89.47
2018-01-03T11:10:56.768Z,90.04
2018-01-03T11:11:56.798Z,90.80
2018-01-03T11:12:56.825Z,90.42
2018-01-03T11:13:56.855Z,90.61
2018-01-03T11:14:56.884Z,89.85
2018-01-03T11:15:56.914Z,90.04
2018-01-03T11:16:56.942Z,89.56
2018-01-03T11:17:56.971Z,89.28
2018-01-03T11:18:56.999Z,88.61
2018-01-03T11:19:57.029Z,88.52
2018-01-03T11:20:57.055Z,88.33
2018-01-03T11:21:57.085Z,88.90
2018-01-03T11:22:57.114Z,88.75
2018-01-03T11:23:57.142Z,89.23
2018-01-03T11:24:57.171Z,88.13
2018-01-03T11:25:57.200Z,87.61
2018-01-03T11:26:57.231Z,87.42
2018-01-03T11:27:57.257Z,86.94
2018-01-03T11:28:57.287Z,86.09
2018-01-03T11:29:57.316Z,86.38
2018-01-03T11:30:57.345Z,86.18
2018-01-03T11:31:57.374Z,84.85
2018-01-03T11:32:57.402Z,84.47
2018-01-03T11:33:57.432Z,83.94
2018-01-03T11:34:57.461Z,82.70
2018-01-03T11:35:57.491Z,83.09
2018-01-03T11:36:57.519Z,83.18
2018-01-03T11:37:57.548Z,83.18
2018-01-03T11:38:57.578Z,82.61
2018-01-03T11:39:57.607Z,82.04
2018-01-03T11:40:57.635Z,82.90
2018-01-03T11:41:57.665Z,82.61
2018-01-03T11:42:57.696Z,81.85
2018-01-03T11:43:57.724Z,81.47
2018-01-03T11:44:57.753Z,81.56
2018-01-03T11:45:57.783Z,80.75
2018-01-03T11:46:57.811Z,80.46
2018-01-03T11:47:57.843Z,79.55
2018-01-03T11:48:57.871Z,78.98
2018-01-03T11:49:57.901Z,79.07
2018-01-03T11:50:57.932Z,77.93
2018-01-03T11:51:57.968Z,78.03
2018-01-03T11:52:57.990Z,78.50
2018-01-03T11:53:58.021Z,78.94
2018-01-03T11:54:58.057Z,78.94
2018-01-03T11:55:58.082Z,79.41
2018-01-03T11:56:58.112Z,80.36
2018-01-03T11:57:58.143Z,79.80
2018-01-03T11:58:58.173Z,80.46
2018-01-03T11:59:58.204Z,79.60
2018-01-03T12:00:58.234Z,79.41
2018-01-03T12:01:58.265Z,79.80
2018-01-03T12:02:58.296Z,77.98
2018-01-03T12:03:58.326Z,78.46
2018-01-03T12:04:58.356Z,77.93
2018-01-03T12:05:58.387Z,78.17
2018-01-03T12:06:58.417Z,77.89
2018-01-03T12:07:58.448Z,78.03
2018-01-03T12:08:58.477Z,77.20
2018-01-03T12:09:58.508Z,75.43
2018-01-03T12:10:58.540Z,73.18
2018-01-03T12:11:58.571Z,70.54
2018-01-03T12:12:58.601Z,67.77
2018-01-03T12:13:58.632Z,69.27
2018-01-03T12:14:58.666Z,70.47
2018-01-03T12:15:58.696Z,72.38
2018-01-03T12:16:58.727Z,73.01
2018-01-03T12:17:58.760Z,73.01
2018-01-03T12:18:58.792Z,72.67
2018-01-03T12:19:58.825Z,71.66
2018-01-03T12:20:58.855Z,72.25
2018-01-03T12:21:58.889Z,73.39
2018-01-03T12:22:58.921Z,73.58
2018-01-03T12:23:58.953Z,73.30
2018-01-03T12:24:58.984Z,71.72
2018-01-03T12:25:59.018Z,70.61
2018-01-03T12:26:59.050Z,69.04
2018-01-03T12:27:59.083Z,68.48
2018-01-03T12:28:59.115Z,64.62
2018-01-03T12:29:59.148Z,59.58
2018-01-03T12:30:59.180Z,58.44
2018-01-03T12:31:59.214Z,61.12
2018-01-03T12:32:59.246Z,61.95
2018-01-03T12:33:59.284Z,61.89
2018-01-03T12:34:59.316Z,64.72
2018-01-03T12:35:59.351Z,65.45
2018-01-03T12:36:59.425Z,66.38
2018-01-03T12:37:59.419Z,67.80
2018-01-03T12:38:59.452Z,67.74
2018-01-03T12:39:59.486Z,67.07
2018-01-03T12:40:59.520Z,68.47
2018-01-03T12:41:59.555Z,68.95
2018-01-03T12:42:59.600Z,67.99
2018-01-03T12:43:59.627Z,67.80
2018-01-03T12:44:59.657Z,66.15
2018-01-03T12:45:59.692Z,63.42
2018-01-03T12:46:59.724Z,61.03
2018-01-03T12:47:59.798Z,63.16
2018-01-03T12:48:59.841Z,65.36
2018-01-03T12:49:59.831Z,66.38
2018-01-03T12:50:59.859Z,66.38
2018-01-03T12:51:59.894Z,66.41
2018-01-03T12:52:59.926Z,65.33